This is the latest recevied weather packets stored in our database for station/object KJ6BBX. If no packets are shown the sender has not sent any weather packets the latest 1 day(s).
| Time | Temp. | Humidity | Pressure | Rain* | Wind** | Luminosity | Snow |
|---|---|---|---|---|---|---|---|
| 1778050214 | 11.67° C | 84% | 1009.4 hPa | 0 mm | - | 0 W/m² | - |
| 1778049314 | 11.67° C | 84% | 1009.2 hPa | 0 mm | - | 0 W/m² | - |
| 1778048414 | 11.67° C | 83% | 1009.1 hPa | 0 mm | - | 0 W/m² | - |
| 1778047514 | 12.22° C | 83% | 1009 hPa | 0 mm | - | 0 W/m² | - |
| 1778045714 | 12.78° C | 81% | 1009 hPa | 0 mm | - | 0 W/m² | - |
| 1778043914 | 12.78° C | 81% | 1008.7 hPa | 0 mm | - | 0 W/m² | - |
| 1778043014 | 12.78° C | 80% | 1008.4 hPa | 0 mm | - | 0 W/m² | - |
| 1778041214 | 13.33° C | 79% | 1008 hPa | 0 mm | - | 0 W/m² | - |
| 1778039416 | 13.89° C | 76% | 1007.9 hPa | 0 mm | - | 0 W/m² | - |
| 1778038514 | 13.89° C | 75% | 1007.7 hPa | 0 mm | - | 0 W/m² | - |
| 1778037614 | 15° C | 72% | 1007.3 hPa | 0 mm | - | 0 W/m² | - |
| 1778036714 | 15.56° C | 70% | 1007 hPa | 0 mm | - | 0 W/m² | - |
| 1778035814 | 15.56° C | 68% | 1006.8 hPa | 0 mm | - | 0 W/m² | - |
| 1778034914 | 15.56° C | 66% | 1006.8 hPa | 0 mm | - | 1 W/m² | - |
| 1778034014 | 16.11° C | 66% | 1006.4 hPa | 0 mm | - | 7 W/m² | - |
| 1778031314 | 17.22° C | 64% | 1006.4 hPa | 0 mm | - | 35 W/m² | - |
| 1778030414 | 17.22° C | 62% | 1006.2 hPa | 0 mm | - | 58 W/m² | - |
| 1778029514 | 17.22° C | 63% | 1006.5 hPa | 0 mm | - | 53 W/m² | - |
| 1778027714 | 17.78° C | 63% | 1006.4 hPa | 0 mm | - | 63 W/m² | - |
| 1778026814 | 17.78° C | 62% | 1006 hPa | 0 mm | - | 98 W/m² | - |
| 1778021415 | 17.78° C | 57% | 1006.3 hPa | 0 mm | - | 84 W/m² | - |
| 1778018715 | 18.33° C | 55% | 1006.6 hPa | 0 mm | - | 108 W/m² | - |
| 1778016014 | 20° C | 50% | 1006.6 hPa | 0 mm | - | 212 W/m² | - |
| 1778014214 | 20° C | 51% | 1006.3 hPa | 0 mm | - | 212 W/m² | - |
| 1778012414 | 22.78° C | 50% | 1006.4 hPa | 0 mm | - | 793 W/m² | - |
* Rain since midnight (hover to see other rain measurements)
** Current wind speed in m/s (hover to see current wind gust speed)